sensor_id;sensor_type;location;lat;lon;timestamp;temperature;humidity
48212;DHT22;34000;48.772;9.162;2023-01-23T00:00:27;6.70;59.20
48212;DHT22;34000;48.772;9.162;2023-01-23T00:02:52;6.70;59.20
48212;DHT22;34000;48.772;9.162;2023-01-23T00:05:18;6.70;59.20
48212;DHT22;34000;48.772;9.162;2023-01-23T00:07:43;6.70;59.20
48212;DHT22;34000;48.772;9.162;2023-01-23T00:10:09;6.70;59.20
48212;DHT22;34000;48.772;9.162;2023-01-23T00:12:35;6.80;59.30
48212;DHT22;34000;48.772;9.162;2023-01-23T00:15:00;6.80;59.20
48212;DHT22;34000;48.772;9.162;2023-01-23T00:17:26;6.70;59.20
48212;DHT22;34000;48.772;9.162;2023-01-23T00:19:52;6.70;59.20
48212;DHT22;34000;48.772;9.162;2023-01-23T00:22:18;6.80;59.30
48212;DHT22;34000;48.772;9.162;2023-01-23T00:24:43;6.70;59.20
48212;DHT22;34000;48.772;9.162;2023-01-23T00:27:09;6.70;59.20
48212;DHT22;34000;48.772;9.162;2023-01-23T00:29:34;6.70;59.20
48212;DHT22;34000;48.772;9.162;2023-01-23T00:32:00;6.70;59.30
48212;DHT22;34000;48.772;9.162;2023-01-23T00:34:25;6.80;59.30
48212;DHT22;34000;48.772;9.162;2023-01-23T00:36:50;6.80;59.10
48212;DHT22;34000;48.772;9.162;2023-01-23T00:39:17;6.80;59.10
48212;DHT22;34000;48.772;9.162;2023-01-23T00:41:44;6.90;59.10
48212;DHT22;34000;48.772;9.162;2023-01-23T00:44:09;6.90;59.00
48212;DHT22;34000;48.772;9.162;2023-01-23T00:46:35;6.90;58.90
48212;DHT22;34000;48.772;9.162;2023-01-23T00:49:01;7.00;58.90
48212;DHT22;34000;48.772;9.162;2023-01-23T00:51:26;7.00;58.90
48212;DHT22;34000;48.772;9.162;2023-01-23T00:53:52;7.00;58.80
48212;DHT22;34000;48.772;9.162;2023-01-23T00:56:17;7.00;58.80
48212;DHT22;34000;48.772;9.162;2023-01-23T00:58:43;7.00;58.90
48212;DHT22;34000;48.772;9.162;2023-01-23T01:01:09;6.90;58.90
48212;DHT22;34000;48.772;9.162;2023-01-23T01:03:34;6.90;58.90
48212;DHT22;34000;48.772;9.162;2023-01-23T01:06:00;6.90;59.00
48212;DHT22;34000;48.772;9.162;2023-01-23T01:08:25;6.90;59.00
48212;DHT22;34000;48.772;9.162;2023-01-23T01:10:51;6.90;59.00
48212;DHT22;34000;48.772;9.162;2023-01-23T01:13:17;6.90;59.00
48212;DHT22;34000;48.772;9.162;2023-01-23T01:15:47;6.80;59.00
48212;DHT22;34000;48.772;9.162;2023-01-23T01:18:12;6.90;59.00
48212;DHT22;34000;48.772;9.162;2023-01-23T01:20:39;6.80;59.00
48212;DHT22;34000;48.772;9.162;2023-01-23T01:23:04;6.80;59.00
48212;DHT22;34000;48.772;9.162;2023-01-23T01:25:30;6.80;59.00
48212;DHT22;34000;48.772;9.162;2023-01-23T01:27:55;6.80;59.00
48212;DHT22;34000;48.772;9.162;2023-01-23T01:30:21;6.80;59.00
48212;DHT22;34000;48.772;9.162;2023-01-23T01:32:47;6.80;59.00
48212;DHT22;34000;48.772;9.162;2023-01-23T01:35:12;6.80;59.00
48212;DHT22;34000;48.772;9.162;2023-01-23T01:37:38;6.80;59.00
48212;DHT22;34000;48.772;9.162;2023-01-23T01:40:04;6.90;59.00
48212;DHT22;34000;48.772;9.162;2023-01-23T01:42:30;6.80;59.00
48212;DHT22;34000;48.772;9.162;2023-01-23T01:47:21;6.80;59.00
48212;DHT22;34000;48.772;9.162;2023-01-23T01:49:47;6.70;59.00
48212;DHT22;34000;48.772;9.162;2023-01-23T01:52:13;6.70;59.00
48212;DHT22;34000;48.772;9.162;2023-01-23T01:54:45;6.70;59.10
48212;DHT22;34000;48.772;9.162;2023-01-23T01:59:41;6.70;59.10
48212;DHT22;34000;48.772;9.162;2023-01-23T02:02:11;6.60;59.00
48212;DHT22;34000;48.772;9.162;2023-01-23T02:04:39;6.70;59.00
48212;DHT22;34000;48.772;9.162;2023-01-23T02:07:08;6.70;59.00
48212;DHT22;34000;48.772;9.162;2023-01-23T02:09:35;6.70;59.00
48212;DHT22;34000;48.772;9.162;2023-01-23T02:12:02;6.80;59.00
48212;DHT22;34000;48.772;9.162;2023-01-23T02:14:28;6.80;59.00
48212;DHT22;34000;48.772;9.162;2023-01-23T02:16:54;6.70;59.00
48212;DHT22;34000;48.772;9.162;2023-01-23T02:19:33;6.80;59.00
48212;DHT22;34000;48.772;9.162;2023-01-23T02:22:06;6.80;59.00
48212;DHT22;34000;48.772;9.162;2023-01-23T02:24:35;6.70;58.90
48212;DHT22;34000;48.772;9.162;2023-01-23T02:27:03;6.70;58.90
48212;DHT22;34000;48.772;9.162;2023-01-23T02:29:38;6.80;59.00
48212;DHT22;34000;48.772;9.162;2023-01-23T02:32:04;6.80;59.00
48212;DHT22;34000;48.772;9.162;2023-01-23T02:34:30;6.70;59.00
48212;DHT22;34000;48.772;9.162;2023-01-23T02:36:55;6.70;59.00
48212;DHT22;34000;48.772;9.162;2023-01-23T02:39:21;6.70;59.10
48212;DHT22;34000;48.772;9.162;2023-01-23T02:41:48;6.70;59.10
48212;DHT22;34000;48.772;9.162;2023-01-23T02:44:17;6.70;59.10
48212;DHT22;34000;48.772;9.162;2023-01-23T02:46:44;6.70;59.10
48212;DHT22;34000;48.772;9.162;2023-01-23T02:49:09;6.70;59.10
48212;DHT22;34000;48.772;9.162;2023-01-23T02:51:35;6.70;59.10
48212;DHT22;34000;48.772;9.162;2023-01-23T02:54:00;6.70;59.10
48212;DHT22;34000;48.772;9.162;2023-01-23T02:56:26;6.70;59.10
48212;DHT22;34000;48.772;9.162;2023-01-23T02:58:51;6.80;59.10
48212;DHT22;34000;48.772;9.162;2023-01-23T03:01:35;6.80;59.00
48212;DHT22;34000;48.772;9.162;2023-01-23T03:04:02;6.80;59.00
48212;DHT22;34000;48.772;9.162;2023-01-23T03:06:27;6.70;58.90
48212;DHT22;34000;48.772;9.162;2023-01-23T03:08:54;6.80;59.00
48212;DHT22;34000;48.772;9.162;2023-01-23T03:11:20;6.70;58.90
48212;DHT22;34000;48.772;9.162;2023-01-23T03:13:46;6.70;58.90
48212;DHT22;34000;48.772;9.162;2023-01-23T03:16:11;6.70;59.00
48212;DHT22;34000;48.772;9.162;2023-01-23T03:18:37;6.80;59.00
48212;DHT22;34000;48.772;9.162;2023-01-23T03:21:03;6.80;59.00
48212;DHT22;34000;48.772;9.162;2023-01-23T03:23:28;6.70;59.50
48212;DHT22;34000;48.772;9.162;2023-01-23T03:25:54;6.70;58.90
48212;DHT22;34000;48.772;9.162;2023-01-23T03:28:26;6.70;59.00
48212;DHT22;34000;48.772;9.162;2023-01-23T03:31:11;6.70;59.10
48212;DHT22;34000;48.772;9.162;2023-01-23T03:33:37;6.70;59.10
48212;DHT22;34000;48.772;9.162;2023-01-23T03:36:04;6.60;59.10
48212;DHT22;34000;48.772;9.162;2023-01-23T03:38:30;6.60;59.10
48212;DHT22;34000;48.772;9.162;2023-01-23T03:40:55;6.60;59.20
48212;DHT22;34000;48.772;9.162;2023-01-23T03:43:40;6.60;59.20
48212;DHT22;34000;48.772;9.162;2023-01-23T03:46:05;6.70;59.20
48212;DHT22;34000;48.772;9.162;2023-01-23T03:48:31;6.60;59.20
48212;DHT22;34000;48.772;9.162;2023-01-23T03:50:56;6.70;59.20
48212;DHT22;34000;48.772;9.162;2023-01-23T03:53:22;6.70;59.10
48212;DHT22;34000;48.772;9.162;2023-01-23T03:55:49;6.70;59.10
48212;DHT22;34000;48.772;9.162;2023-01-23T03:58:14;6.70;59.10
48212;DHT22;34000;48.772;9.162;2023-01-23T04:00:40;6.70;59.20
48212;DHT22;34000;48.772;9.162;2023-01-23T04:03:05;6.70;59.20
48212;DHT22;34000;48.772;9.162;2023-01-23T04:05:31;6.70;59.10
48212;DHT22;34000;48.772;9.162;2023-01-23T04:07:56;6.60;59.10
48212;DHT22;34000;48.772;9.162;2023-01-23T04:10:22;6.70;59.20
48212;DHT22;34000;48.772;9.162;2023-01-23T04:12:47;6.70;59.20
48212;DHT22;34000;48.772;9.162;2023-01-23T04:15:13;6.70;59.20
48212;DHT22;34000;48.772;9.162;2023-01-23T04:17:38;6.70;59.20
48212;DHT22;34000;48.772;9.162;2023-01-23T04:20:04;6.70;59.20
48212;DHT22;34000;48.772;9.162;2023-01-23T04:22:29;6.70;59.20
48212;DHT22;34000;48.772;9.162;2023-01-23T04:24:55;6.60;59.10
48212;DHT22;34000;48.772;9.162;2023-01-23T04:27:20;6.70;59.20
48212;DHT22;34000;48.772;9.162;2023-01-23T04:29:46;6.70;59.20
48212;DHT22;34000;48.772;9.162;2023-01-23T04:32:14;6.70;59.20
48212;DHT22;34000;48.772;9.162;2023-01-23T04:34:39;6.70;59.30
48212;DHT22;34000;48.772;9.162;2023-01-23T04:37:05;6.60;59.20
48212;DHT22;34000;48.772;9.162;2023-01-23T04:39:31;6.60;59.20
48212;DHT22;34000;48.772;9.162;2023-01-23T04:41:56;6.70;59.30
48212;DHT22;34000;48.772;9.162;2023-01-23T04:44:22;6.70;59.30
48212;DHT22;34000;48.772;9.162;2023-01-23T04:46:48;6.70;59.20
48212;DHT22;34000;48.772;9.162;2023-01-23T04:49:23;6.60;59.10
48212;DHT22;34000;48.772;9.162;2023-01-23T04:51:49;6.70;59.20
48212;DHT22;34000;48.772;9.162;2023-01-23T04:54:15;6.70;59.10
48212;DHT22;34000;48.772;9.162;2023-01-23T04:56:41;6.70;59.10
48212;DHT22;34000;48.772;9.162;2023-01-23T04:59:07;6.70;59.10
48212;DHT22;34000;48.772;9.162;2023-01-23T05:01:32;6.70;59.10
48212;DHT22;34000;48.772;9.162;2023-01-23T05:03:58;6.70;59.10
48212;DHT22;34000;48.772;9.162;2023-01-23T05:06:24;6.70;59.10
48212;DHT22;34000;48.772;9.162;2023-01-23T05:08:49;6.70;59.10
48212;DHT22;34000;48.772;9.162;2023-01-23T05:11:15;6.70;59.10
48212;DHT22;34000;48.772;9.162;2023-01-23T05:13:40;6.70;59.00
48212;DHT22;34000;48.772;9.162;2023-01-23T05:16:06;6.70;59.10
48212;DHT22;34000;48.772;9.162;2023-01-23T05:18:31;6.70;59.00
48212;DHT22;34000;48.772;9.162;2023-01-23T05:20:57;6.70;59.00
48212;DHT22;34000;48.772;9.162;2023-01-23T05:23:22;6.70;59.00
48212;DHT22;34000;48.772;9.162;2023-01-23T05:25:48;6.70;59.10
48212;DHT22;34000;48.772;9.162;2023-01-23T05:28:13;6.70;59.10
48212;DHT22;34000;48.772;9.162;2023-01-23T05:30:39;6.70;59.20
48212;DHT22;34000;48.772;9.162;2023-01-23T05:33:04;6.70;59.10
48212;DHT22;34000;48.772;9.162;2023-01-23T05:35:30;6.70;59.10
48212;DHT22;34000;48.772;9.162;2023-01-23T05:37:55;6.70;59.10
48212;DHT22;34000;48.772;9.162;2023-01-23T05:40:21;6.70;59.10
48212;DHT22;34000;48.772;9.162;2023-01-23T05:42:47;6.80;59.10
48212;DHT22;34000;48.772;9.162;2023-01-23T05:45:13;6.80;59.00
48212;DHT22;34000;48.772;9.162;2023-01-23T05:47:38;6.80;58.90
48212;DHT22;34000;48.772;9.162;2023-01-23T05:50:04;6.80;58.90
48212;DHT22;34000;48.772;9.162;2023-01-23T05:52:30;6.80;59.00
48212;DHT22;34000;48.772;9.162;2023-01-23T05:54:55;6.80;59.00
48212;DHT22;34000;48.772;9.162;2023-01-23T05:57:21;6.80;59.00
48212;DHT22;34000;48.772;9.162;2023-01-23T05:59:47;6.80;59.00
48212;DHT22;34000;48.772;9.162;2023-01-23T06:02:12;6.80;59.00
48212;DHT22;34000;48.772;9.162;2023-01-23T06:04:38;6.80;59.10
48212;DHT22;34000;48.772;9.162;2023-01-23T06:07:03;6.80;59.00
48212;DHT22;34000;48.772;9.162;2023-01-23T06:09:29;6.80;58.90
48212;DHT22;34000;48.772;9.162;2023-01-23T06:11:54;6.80;58.90
48212;DHT22;34000;48.772;9.162;2023-01-23T06:14:20;6.80;59.00
48212;DHT22;34000;48.772;9.162;2023-01-23T06:16:47;6.80;59.00
48212;DHT22;34000;48.772;9.162;2023-01-23T06:19:13;6.70;59.00
48212;DHT22;34000;48.772;9.162;2023-01-23T06:21:38;6.70;59.00
48212;DHT22;34000;48.772;9.162;2023-01-23T06:24:04;6.70;59.10
48212;DHT22;34000;48.772;9.162;2023-01-23T06:26:29;6.60;59.10
48212;DHT22;34000;48.772;9.162;2023-01-23T06:28:54;6.60;59.20
48212;DHT22;34000;48.772;9.162;2023-01-23T06:31:20;6.60;59.20
48212;DHT22;34000;48.772;9.162;2023-01-23T06:33:52;6.70;59.30
48212;DHT22;34000;48.772;9.162;2023-01-23T06:36:17;6.60;59.10
48212;DHT22;34000;48.772;9.162;2023-01-23T06:38:43;6.70;59.20
48212;DHT22;34000;48.772;9.162;2023-01-23T06:41:08;6.70;59.70
48212;DHT22;34000;48.772;9.162;2023-01-23T06:43:34;6.70;59.10
48212;DHT22;34000;48.772;9.162;2023-01-23T06:45:59;6.70;59.10
48212;DHT22;34000;48.772;9.162;2023-01-23T06:48:25;6.70;59.10
48212;DHT22;34000;48.772;9.162;2023-01-23T06:50:50;6.70;59.10
48212;DHT22;34000;48.772;9.162;2023-01-23T06:53:16;6.60;59.10
48212;DHT22;34000;48.772;9.162;2023-01-23T06:55:41;6.70;59.20
48212;DHT22;34000;48.772;9.162;2023-01-23T06:58:07;6.60;59.10
48212;DHT22;34000;48.772;9.162;2023-01-23T07:00:32;6.70;59.20
48212;DHT22;34000;48.772;9.162;2023-01-23T07:02:59;6.60;59.10
48212;DHT22;34000;48.772;9.162;2023-01-23T07:05:28;6.60;59.20
48212;DHT22;34000;48.772;9.162;2023-01-23T07:07:54;6.60;59.20
48212;DHT22;34000;48.772;9.162;2023-01-23T07:10:20;6.60;59.30
48212;DHT22;34000;48.772;9.162;2023-01-23T07:12:45;6.60;59.20
48212;DHT22;34000;48.772;9.162;2023-01-23T07:15:11;6.60;59.20
48212;DHT22;34000;48.772;9.162;2023-01-23T07:17:36;6.60;59.30
48212;DHT22;34000;48.772;9.162;2023-01-23T07:20:02;6.60;59.30
48212;DHT22;34000;48.772;9.162;2023-01-23T07:22:27;6.60;59.30
48212;DHT22;34000;48.772;9.162;2023-01-23T07:24:53;6.50;59.30
48212;DHT22;34000;48.772;9.162;2023-01-23T07:27:18;6.50;59.30
48212;DHT22;34000;48.772;9.162;2023-01-23T07:29:44;6.50;59.30
48212;DHT22;34000;48.772;9.162;2023-01-23T07:32:09;6.40;59.40
48212;DHT22;34000;48.772;9.162;2023-01-23T07:34:34;6.40;59.50
48212;DHT22;34000;48.772;9.162;2023-01-23T07:37:00;6.40;59.50
48212;DHT22;34000;48.772;9.162;2023-01-23T07:39:25;6.40;59.50
48212;DHT22;34000;48.772;9.162;2023-01-23T07:41:51;6.40;59.50
48212;DHT22;34000;48.772;9.162;2023-01-23T07:44:18;6.30;59.40
48212;DHT22;34000;48.772;9.162;2023-01-23T07:46:44;6.40;59.60
48212;DHT22;34000;48.772;9.162;2023-01-23T07:49:10;6.40;59.70
48212;DHT22;34000;48.772;9.162;2023-01-23T07:51:35;6.40;59.60
48212;DHT22;34000;48.772;9.162;2023-01-23T07:54:00;6.50;59.60
48212;DHT22;34000;48.772;9.162;2023-01-23T07:56:26;6.50;59.60
48212;DHT22;34000;48.772;9.162;2023-01-23T07:58:52;6.50;59.60
48212;DHT22;34000;48.772;9.162;2023-01-23T08:01:17;6.50;59.60
48212;DHT22;34000;48.772;9.162;2023-01-23T08:03:44;6.50;59.50
48212;DHT22;34000;48.772;9.162;2023-01-23T08:06:09;6.60;59.50
48212;DHT22;34000;48.772;9.162;2023-01-23T08:08:35;6.60;59.50
48212;DHT22;34000;48.772;9.162;2023-01-23T08:11:03;6.60;59.40
48212;DHT22;34000;48.772;9.162;2023-01-23T08:13:29;6.60;59.40
48212;DHT22;34000;48.772;9.162;2023-01-23T08:15:56;6.70;59.40
48212;DHT22;34000;48.772;9.162;2023-01-23T08:18:21;6.60;59.30
48212;DHT22;34000;48.772;9.162;2023-01-23T08:20:53;6.70;59.30
48212;DHT22;34000;48.772;9.162;2023-01-23T08:23:19;6.70;59.30
48212;DHT22;34000;48.772;9.162;2023-01-23T08:25:45;6.70;59.20
48212;DHT22;34000;48.772;9.162;2023-01-23T08:28:10;6.70;59.20
48212;DHT22;34000;48.772;9.162;2023-01-23T08:30:36;6.70;59.30
48212;DHT22;34000;48.772;9.162;2023-01-23T08:33:01;6.70;59.30
48212;DHT22;34000;48.772;9.162;2023-01-23T08:35:29;6.80;59.30
48212;DHT22;34000;48.772;9.162;2023-01-23T08:37:54;6.70;59.20
48212;DHT22;34000;48.772;9.162;2023-01-23T08:40:20;6.80;59.30
48212;DHT22;34000;48.772;9.162;2023-01-23T08:42:45;6.80;59.30
48212;DHT22;34000;48.772;9.162;2023-01-23T08:45:10;6.90;59.20
48212;DHT22;34000;48.772;9.162;2023-01-23T08:47:36;6.80;59.10
48212;DHT22;34000;48.772;9.162;2023-01-23T08:50:05;6.80;59.10
48212;DHT22;34000;48.772;9.162;2023-01-23T08:52:31;6.80;59.00
48212;DHT22;34000;48.772;9.162;2023-01-23T08:54:58;6.90;59.00
48212;DHT22;34000;48.772;9.162;2023-01-23T08:57:24;6.90;59.00
48212;DHT22;34000;48.772;9.162;2023-01-23T08:59:49;6.90;58.90
48212;DHT22;34000;48.772;9.162;2023-01-23T09:02:15;6.90;58.90
48212;DHT22;34000;48.772;9.162;2023-01-23T09:04:40;6.90;58.90
48212;DHT22;34000;48.772;9.162;2023-01-23T09:07:06;6.90;58.80
48212;DHT22;34000;48.772;9.162;2023-01-23T09:09:31;7.00;58.80
48212;DHT22;34000;48.772;9.162;2023-01-23T09:11:57;7.10;58.80
48212;DHT22;34000;48.772;9.162;2023-01-23T09:14:22;7.20;58.70
48212;DHT22;34000;48.772;9.162;2023-01-23T09:16:48;7.30;58.50
48212;DHT22;34000;48.772;9.162;2023-01-23T09:19:13;7.20;58.40
48212;DHT22;34000;48.772;9.162;2023-01-23T09:21:40;7.30;58.40
48212;DHT22;34000;48.772;9.162;2023-01-23T09:24:05;7.40;58.30
48212;DHT22;34000;48.772;9.162;2023-01-23T09:26:30;7.30;58.10
48212;DHT22;34000;48.772;9.162;2023-01-23T09:28:56;7.30;58.00
48212;DHT22;34000;48.772;9.162;2023-01-23T09:31:21;7.30;57.90
48212;DHT22;34000;48.772;9.162;2023-01-23T09:33:47;7.40;57.90
48212;DHT22;34000;48.772;9.162;2023-01-23T09:36:13;7.30;57.80
48212;DHT22;34000;48.772;9.162;2023-01-23T09:38:38;7.30;57.70
48212;DHT22;34000;48.772;9.162;2023-01-23T09:41:20;7.20;57.70
48212;DHT22;34000;48.772;9.162;2023-01-23T09:44:01;7.20;57.70
48212;DHT22;34000;48.772;9.162;2023-01-23T09:46:33;7.10;57.70
48212;DHT22;34000;48.772;9.162;2023-01-23T09:56:45;6.90;57.70
48212;DHT22;34000;48.772;9.162;2023-01-23T10:01:40;6.90;57.70
48212;DHT22;34000;48.772;9.162;2023-01-23T10:04:05;6.90;57.60
48212;DHT22;34000;48.772;9.162;2023-01-23T10:14:21;6.90;57.40
48212;DHT22;34000;48.772;9.162;2023-01-23T10:29:59;7.30;56.60
48212;DHT22;34000;48.772;9.162;2023-01-23T10:32:27;7.20;56.60
48212;DHT22;34000;48.772;9.162;2023-01-23T10:35:01;7.20;56.70
48212;DHT22;34000;48.772;9.162;2023-01-23T10:37:50;7.30;56.70
48212;DHT22;34000;48.772;9.162;2023-01-23T10:40:21;7.40;56.50
48212;DHT22;34000;48.772;9.162;2023-01-23T10:43:12;7.40;56.30
48212;DHT22;34000;48.772;9.162;2023-01-23T10:45:38;7.50;56.20
48212;DHT22;34000;48.772;9.162;2023-01-23T10:48:25;7.40;56.10
48212;DHT22;34000;48.772;9.162;2023-01-23T10:50:49;7.40;56.20
48212;DHT22;34000;48.772;9.162;2023-01-23T10:53:18;7.40;56.20
48212;DHT22;34000;48.772;9.162;2023-01-23T10:55:44;7.40;56.40
48212;DHT22;34000;48.772;9.162;2023-01-23T10:58:20;7.40;56.30
48212;DHT22;34000;48.772;9.162;2023-01-23T11:00:46;7.30;56.20
48212;DHT22;34000;48.772;9.162;2023-01-23T11:08:28;7.20;56.30
48212;DHT22;34000;48.772;9.162;2023-01-23T11:10:57;7.20;56.40
48212;DHT22;34000;48.772;9.162;2023-01-23T11:13:36;7.20;56.40
48212;DHT22;34000;48.772;9.162;2023-01-23T11:16:01;7.30;56.40
48212;DHT22;34000;48.772;9.162;2023-01-23T11:18:31;7.30;56.30
48212;DHT22;34000;48.772;9.162;2023-01-23T11:20:56;7.40;56.30
48212;DHT22;34000;48.772;9.162;2023-01-23T11:23:22;7.40;56.20
48212;DHT22;34000;48.772;9.162;2023-01-23T11:25:48;7.40;56.10
48212;DHT22;34000;48.772;9.162;2023-01-23T11:33:37;7.60;56.00
48212;DHT22;34000;48.772;9.162;2023-01-23T11:36:06;7.60;55.90
48212;DHT22;34000;48.772;9.162;2023-01-23T11:38:37;7.60;55.90
48212;DHT22;34000;48.772;9.162;2023-01-23T11:41:04;7.60;55.80
48212;DHT22;34000;48.772;9.162;2023-01-23T11:43:32;7.50;55.80
48212;DHT22;34000;48.772;9.162;2023-01-23T11:58:57;7.50;56.00
48212;DHT22;34000;48.772;9.162;2023-01-23T12:01:37;7.40;55.90
48212;DHT22;34000;48.772;9.162;2023-01-23T12:04:13;7.40;55.90
48212;DHT22;34000;48.772;9.162;2023-01-23T12:09:13;7.40;55.90
48212;DHT22;34000;48.772;9.162;2023-01-23T12:14:18;7.50;55.90
48212;DHT22;34000;48.772;9.162;2023-01-23T12:24:20;7.70;55.70
48212;DHT22;34000;48.772;9.162;2023-01-23T12:26:56;7.70;55.70
48212;DHT22;34000;48.772;9.162;2023-01-23T12:29:28;7.90;55.60
48212;DHT22;34000;48.772;9.162;2023-01-23T12:32:15;8.00;55.40
48212;DHT22;34000;48.772;9.162;2023-01-23T12:34:58;8.00;55.30
48212;DHT22;34000;48.772;9.162;2023-01-23T12:37:49;8.10;55.30
48212;DHT22;34000;48.772;9.162;2023-01-23T12:41:05;8.20;55.20
48212;DHT22;34000;48.772;9.162;2023-01-23T12:45:39;8.30;55.10
48212;DHT22;34000;48.772;9.162;2023-01-23T12:48:08;8.30;55.60
48212;DHT22;34000;48.772;9.162;2023-01-23T12:50:41;8.30;55.00
48212;DHT22;34000;48.772;9.162;2023-01-23T12:53:17;8.40;55.00
48212;DHT22;34000;48.772;9.162;2023-01-23T12:58:28;8.50;54.80
48212;DHT22;34000;48.772;9.162;2023-01-23T13:03:44;8.70;54.60
48212;DHT22;34000;48.772;9.162;2023-01-23T13:08:45;8.50;54.60
48212;DHT22;34000;48.772;9.162;2023-01-23T13:11:14;8.40;54.70
48212;DHT22;34000;48.772;9.162;2023-01-23T13:13:59;8.30;54.90
48212;DHT22;34000;48.772;9.162;2023-01-23T13:16:28;8.40;55.00
48212;DHT22;34000;48.772;9.162;2023-01-23T13:18:58;8.40;54.90
48212;DHT22;34000;48.772;9.162;2023-01-23T13:24:42;8.50;54.60
48212;DHT22;34000;48.772;9.162;2023-01-23T13:32:46;8.40;54.60
48212;DHT22;34000;48.772;9.162;2023-01-23T13:37:57;8.40;54.70
48212;DHT22;34000;48.772;9.162;2023-01-23T13:40:23;8.30;54.70
48212;DHT22;34000;48.772;9.162;2023-01-23T13:42:48;8.30;54.80
48212;DHT22;34000;48.772;9.162;2023-01-23T13:50:56;8.50;54.80
48212;DHT22;34000;48.772;9.162;2023-01-23T13:53:24;8.50;54.70
48212;DHT22;34000;48.772;9.162;2023-01-23T13:56:10;8.50;54.70
48212;DHT22;34000;48.772;9.162;2023-01-23T13:58:57;8.50;54.70
48212;DHT22;34000;48.772;9.162;2023-01-23T14:01:23;8.50;54.60
48212;DHT22;34000;48.772;9.162;2023-01-23T14:04:17;8.50;54.70
48212;DHT22;34000;48.772;9.162;2023-01-23T14:07:02;8.50;54.70
48212;DHT22;34000;48.772;9.162;2023-01-23T14:09:30;8.50;54.80
48212;DHT22;34000;48.772;9.162;2023-01-23T14:11:59;8.50;54.70
48212;DHT22;34000;48.772;9.162;2023-01-23T14:14:33;8.50;54.70
48212;DHT22;34000;48.772;9.162;2023-01-23T14:17:17;8.40;54.70
48212;DHT22;34000;48.772;9.162;2023-01-23T14:22:17;8.40;54.80
48212;DHT22;34000;48.772;9.162;2023-01-23T14:24:44;8.40;54.90
48212;DHT22;34000;48.772;9.162;2023-01-23T14:27:17;8.40;54.90
48212;DHT22;34000;48.772;9.162;2023-01-23T14:29:54;8.40;54.90
48212;DHT22;34000;48.772;9.162;2023-01-23T14:32:23;8.30;54.90
48212;DHT22;34000;48.772;9.162;2023-01-23T14:34:49;8.30;54.90
48212;DHT22;34000;48.772;9.162;2023-01-23T14:37:14;8.20;54.90
48212;DHT22;34000;48.772;9.162;2023-01-23T14:39:42;8.30;55.10
48212;DHT22;34000;48.772;9.162;2023-01-23T14:42:12;8.20;55.10
48212;DHT22;34000;48.772;9.162;2023-01-23T14:44:45;8.20;55.20
48212;DHT22;34000;48.772;9.162;2023-01-23T14:47:15;8.10;55.20
48212;DHT22;34000;48.772;9.162;2023-01-23T14:49:41;8.10;55.30
48212;DHT22;34000;48.772;9.162;2023-01-23T14:52:17;8.10;55.30
48212;DHT22;34000;48.772;9.162;2023-01-23T14:54:44;8.10;55.30
48212;DHT22;34000;48.772;9.162;2023-01-23T14:57:10;8.10;55.30
48212;DHT22;34000;48.772;9.162;2023-01-23T14:59:37;8.10;55.30
48212;DHT22;34000;48.772;9.162;2023-01-23T15:02:21;8.00;55.40
48212;DHT22;34000;48.772;9.162;2023-01-23T15:07:32;7.90;55.60
48212;DHT22;34000;48.772;9.162;2023-01-23T15:09:58;8.00;66.60
48212;DHT22;34000;48.772;9.162;2023-01-23T15:12:24;7.80;55.80
48212;DHT22;34000;48.772;9.162;2023-01-23T15:14:51;7.80;55.80
48212;DHT22;34000;48.772;9.162;2023-01-23T15:17:18;7.70;55.80
48212;DHT22;34000;48.772;9.162;2023-01-23T15:19:51;7.70;55.90
48212;DHT22;34000;48.772;9.162;2023-01-23T15:22:26;7.70;56.00
48212;DHT22;34000;48.772;9.162;2023-01-23T15:24:52;7.70;56.00
48212;DHT22;34000;48.772;9.162;2023-01-23T15:27:33;7.60;56.00
48212;DHT22;34000;48.772;9.162;2023-01-23T15:32:43;7.60;56.20
48212;DHT22;34000;48.772;9.162;2023-01-23T15:35:13;7.50;56.30
48212;DHT22;34000;48.772;9.162;2023-01-23T15:37:45;7.60;56.40
48212;DHT22;34000;48.772;9.162;2023-01-23T15:40:17;7.40;56.70
48212;DHT22;34000;48.772;9.162;2023-01-23T15:42:59;7.50;56.60
48212;DHT22;34000;48.772;9.162;2023-01-23T15:45:24;7.50;56.60
48212;DHT22;34000;48.772;9.162;2023-01-23T15:47:50;7.40;56.60
48212;DHT22;34000;48.772;9.162;2023-01-23T15:50:15;7.60;56.60
48212;DHT22;34000;48.772;9.162;2023-01-23T15:52:45;7.60;56.60
48212;DHT22;34000;48.772;9.162;2023-01-23T15:55:11;7.50;56.50
48212;DHT22;34000;48.772;9.162;2023-01-23T15:57:37;7.60;56.50
48212;DHT22;34000;48.772;9.162;2023-01-23T16:02:40;7.60;56.40
48212;DHT22;34000;48.772;9.162;2023-01-23T16:05:05;7.70;56.40
48212;DHT22;34000;48.772;9.162;2023-01-23T16:07:32;7.70;56.40
48212;DHT22;34000;48.772;9.162;2023-01-23T16:09:58;7.70;56.50
48212;DHT22;34000;48.772;9.162;2023-01-23T16:12:27;7.60;56.50
48212;DHT22;34000;48.772;9.162;2023-01-23T16:14:53;7.70;56.50
48212;DHT22;34000;48.772;9.162;2023-01-23T16:17:19;7.60;56.50
48212;DHT22;34000;48.772;9.162;2023-01-23T16:19:44;7.60;56.60
48212;DHT22;34000;48.772;9.162;2023-01-23T16:22:14;7.70;56.60
48212;DHT22;34000;48.772;9.162;2023-01-23T16:24:42;7.70;56.50
48212;DHT22;34000;48.772;9.162;2023-01-23T16:27:11;7.70;56.50
48212;DHT22;34000;48.772;9.162;2023-01-23T16:29:38;7.70;56.50
48212;DHT22;34000;48.772;9.162;2023-01-23T16:32:03;7.70;56.50
48212;DHT22;34000;48.772;9.162;2023-01-23T16:34:29;7.80;56.50
48212;DHT22;34000;48.772;9.162;2023-01-23T16:36:55;7.70;56.50
48212;DHT22;34000;48.772;9.162;2023-01-23T16:39:24;7.80;56.50
48212;DHT22;34000;48.772;9.162;2023-01-23T16:41:50;7.80;57.00
48212;DHT22;34000;48.772;9.162;2023-01-23T16:44:18;7.70;56.30
48212;DHT22;34000;48.772;9.162;2023-01-23T16:46:46;7.90;56.40
48212;DHT22;34000;48.772;9.162;2023-01-23T16:49:12;7.80;56.30
48212;DHT22;34000;48.772;9.162;2023-01-23T16:51:39;7.80;56.30
48212;DHT22;34000;48.772;9.162;2023-01-23T16:54:07;7.80;56.30
48212;DHT22;34000;48.772;9.162;2023-01-23T16:56:38;7.80;56.30
48212;DHT22;34000;48.772;9.162;2023-01-23T16:59:05;7.90;56.40
48212;DHT22;34000;48.772;9.162;2023-01-23T17:01:32;7.80;56.30
48212;DHT22;34000;48.772;9.162;2023-01-23T17:04:01;7.80;56.30
48212;DHT22;34000;48.772;9.162;2023-01-23T17:06:27;7.80;56.40
48212;DHT22;34000;48.772;9.162;2023-01-23T17:08:52;7.90;56.40
48212;DHT22;34000;48.772;9.162;2023-01-23T17:11:28;7.90;56.40
48212;DHT22;34000;48.772;9.162;2023-01-23T17:13:59;7.90;56.30
48212;DHT22;34000;48.772;9.162;2023-01-23T17:16:26;7.90;56.30
48212;DHT22;34000;48.772;9.162;2023-01-23T17:18:52;7.90;56.30
48212;DHT22;34000;48.772;9.162;2023-01-23T17:21:18;7.90;56.30
48212;DHT22;34000;48.772;9.162;2023-01-23T17:23:45;8.00;56.30
48212;DHT22;34000;48.772;9.162;2023-01-23T17:26:17;7.90;56.30
48212;DHT22;34000;48.772;9.162;2023-01-23T17:28:43;8.00;56.40
48212;DHT22;34000;48.772;9.162;2023-01-23T17:31:12;8.10;56.40
48212;DHT22;34000;48.772;9.162;2023-01-23T17:33:40;8.00;56.30
48212;DHT22;34000;48.772;9.162;2023-01-23T17:36:05;8.00;56.20
48212;DHT22;34000;48.772;9.162;2023-01-23T17:38:31;8.00;56.20